Time,TemperatureF,DewpointF,PressureIn,WindDirection,WindDirectionDegrees,WindSpeedMPH,WindSpeedGustMPH,Humidity,HourlyPrecipIn,Conditions,Clouds,dailyrainin,SoftwareType,DateUTC
2013-01-06 00:00:00,27.5,-12.8,30.27,North,353,2.7,3.1,16,0.00,,---,0.00,VWS V14.01,2013-01-06 08:00:00,
2013-01-06 00:20:00,27.9,-12.5,30.27,North,349,0.0,4.0,16,0.00,,---,0.00,VWS V14.01,2013-01-06 08:20:00,
2013-01-06 00:40:00,27.3,-12.9,30.27,NNE,16,0.0,3.1,16,0.00,,---,0.00,VWS V14.01,2013-01-06 08:40:00,
2013-01-06 01:00:00,28.4,-12.1,30.27,North,353,0.0,2.7,16,0.00,,---,0.00,VWS V14.01,2013-01-06 09:00:00,
2013-01-06 01:20:00,28.0,-10.0,30.27,NNW,341,0.0,3.6,18,0.00,,---,0.00,VWS V14.01,2013-01-06 09:20:00,
2013-01-06 01:40:00,30.4,-8.0,30.27,North,5,2.7,3.6,18,0.00,,---,0.00,VWS V14.01,2013-01-06 09:40:00,
2013-01-06 02:00:00,30.0,-8.3,30.24,NW,304,0.0,3.6,18,0.00,,---,0.00,VWS V14.01,2013-01-06 10:00:00,
2013-01-06 02:20:00,30.2,-8.2,30.24,NNW,345,0.0,3.6,18,0.00,,---,0.00,VWS V14.01,2013-01-06 10:20:00,
2013-01-06 02:40:00,28.6,-9.5,30.24,WNW,299,2.2,2.7,18,0.00,,---,0.00,VWS V14.01,2013-01-06 10:40:00,
2013-01-06 03:00:00,31.6,-10.7,30.24,ESE,108,2.7,3.6,15,0.00,,---,0.00,VWS V14.01,2013-01-06 11:00:00,
2013-01-06 03:20:00,31.8,-10.6,30.24,SSW,206,0.0,5.4,15,0.00,,---,0.00,VWS V14.01,2013-01-06 11:20:00,
2013-01-06 03:40:00,31.3,-11.0,30.24,SW,218,0.0,3.1,15,0.00,,---,0.00,VWS V14.01,2013-01-06 11:40:00,
2013-01-06 04:00:00,31.1,-11.1,30.24,SSW,210,0.0,4.0,15,0.00,,---,0.00,VWS V14.01,2013-01-06 12:00:00,
2013-01-06 04:20:00,29.1,-9.1,30.21,SW,230,0.0,3.1,18,0.00,,---,0.00,VWS V14.01,2013-01-06 12:20:00,
2013-01-06 04:40:00,27.5,-7.3,30.21,NNW,333,0.0,2.7,21,0.00,,---,0.00,VWS V14.01,2013-01-06 12:40:00,
2013-01-06 05:00:00,30.9,-7.6,30.21,SW,224,0.0,2.7,18,0.00,,---,0.00,VWS V14.01,2013-01-06 13:00:00,
2013-01-06 05:20:00,33.8,-8.9,30.21,SW,216,3.1,5.4,15,0.00,,---,0.00,VWS V14.01,2013-01-06 13:20:00,
2013-01-06 05:40:00,35.4,-7.6,30.21,SSW,196,2.2,8.3,15,0.00,,---,0.00,VWS V14.01,2013-01-06 13:40:00,
2013-01-06 06:00:00,35.8,-8.7,30.21,South,186,4.0,5.4,14,0.00,,---,0.00,VWS V14.01,2013-01-06 14:00:00,
2013-01-06 06:20:00,35.2,4.6,30.21,SW,220,4.0,8.3,27,0.00,,---,0.00,VWS V14.01,2013-01-06 14:20:00,
2013-01-06 06:40:00,34.5,7.7,30.21,SW,221,4.0,8.3,32,0.00,,---,0.00,VWS V14.01,2013-01-06 14:40:00,
2013-01-06 07:00:00,34.0,5.8,30.21,SW,226,3.1,6.3,30,0.00,,---,0.00,VWS V14.01,2013-01-06 15:00:00,
2013-01-06 07:20:00,33.6,11.9,30.21,SW,217,2.7,5.4,40,0.00,,---,0.00,VWS V14.01,2013-01-06 15:20:00,
2013-01-06 07:40:00,33.3,12.1,30.21,NNE,30,0.0,5.4,41,0.00,,---,0.00,VWS V14.01,2013-01-06 15:40:00,
2013-01-06 08:00:00,33.3,13.7,30.21,South,191,2.2,4.5,44,0.00,,---,0.00,VWS V14.01,2013-01-06 16:00:00,
2013-01-06 08:20:00,33.3,14.2,30.21,North,1,0.0,5.8,45,0.00,,---,0.00,VWS V14.01,2013-01-06 16:20:00,
2013-01-06 08:40:00,34.0,14.4,30.21,NNW,344,3.1,4.9,44,0.00,,---,0.00,VWS V14.01,2013-01-06 16:40:00,
2013-01-06 09:00:00,35.4,22.1,30.21,SW,227,4.0,7.6,58,0.00,,---,0.00,VWS V14.01,2013-01-06 17:00:00,
2013-01-06 09:20:00,35.4,22.5,30.21,South,182,3.6,6.3,59,0.00,,---,0.00,VWS V14.01,2013-01-06 17:20:00,
2013-01-06 09:40:00,35.8,22.5,30.21,West,269,4.0,5.8,58,0.00,,---,0.00,VWS V14.01,2013-01-06 17:40:00,
2013-01-06 10:00:00,35.1,20.1,30.21,SSW,202,3.6,7.6,54,0.00,,---,0.00,VWS V14.01,2013-01-06 18:00:00,
2013-01-06 10:20:00,35.8,18.0,30.21,SW,229,5.4,8.3,48,0.00,,---,0.00,VWS V14.01,2013-01-06 18:20:00,
2013-01-06 10:40:00,41.2,12.1,30.21,SSW,204,5.8,10.5,30,0.00,,---,0.00,VWS V14.01,2013-01-06 18:40:00,
2013-01-06 11:00:00,43.3,9.9,30.18,West,265,5.8,11.0,25,0.00,,---,0.00,VWS V14.01,2013-01-06 19:00:00,
2013-01-06 11:20:00,44.6,2.5,30.18,SSW,212,11.9,12.3,17,0.00,,---,0.00,VWS V14.01,2013-01-06 19:20:00,
2013-01-06 11:40:00,41.7,1.4,30.18,South,189,5.4,12.3,18,0.00,,---,0.00,VWS V14.01,2013-01-06 19:40:00,
2013-01-06 12:00:00,43.9,10.4,30.18,SSE,160,5.4,11.0,25,0.00,,---,0.00,VWS V14.01,2013-01-06 20:00:00,
2013-01-06 12:20:00,44.2,5.7,30.15,SSW,200,4.0,11.0,20,0.00,,---,0.00,VWS V14.01,2013-01-06 20:20:00,
2013-01-06 12:40:00,38.3,11.7,30.15,SW,215,3.6,8.7,33,0.00,,---,0.00,VWS V14.01,2013-01-06 20:40:00,
2013-01-06 13:00:00,36.9,14.8,30.15,South,170,3.1,8.7,40,0.00,,---,0.00,VWS V14.01,2013-01-06 21:00:00,
2013-01-06 13:20:00,41.7,11.8,30.15,SSE,148,3.1,8.1,29,0.00,,---,0.00,VWS V14.01,2013-01-06 21:20:00,
2013-01-06 13:40:00,37.8,13.2,30.15,SW,217,2.7,8.7,36,0.00,,---,0.00,VWS V14.01,2013-01-06 21:40:00,
2013-01-06 14:00:00,37.2,15.7,30.15,SW,226,5.8,10.5,41,0.00,,---,0.00,VWS V14.01,2013-01-06 22:00:00,
2013-01-06 14:20:00,37.2,13.4,30.15,SSE,147,3.6,8.7,37,0.00,,---,0.00,VWS V14.01,2013-01-06 22:20:00,
2013-01-06 14:40:00,36.9,13.6,30.12,SSW,196,4.0,6.3,38,0.00,,---,0.00,VWS V14.01,2013-01-06 22:40:00,
2013-01-06 15:00:00,34.2,20.9,30.15,South,182,3.1,8.7,58,0.00,,---,0.00,VWS V14.01,2013-01-06 23:00:00,
2013-01-06 15:20:00,34.5,22.1,30.12,SW,221,6.3,7.2,60,0.00,,---,0.00,VWS V14.01,2013-01-06 23:20:00,
2013-01-06 15:40:00,34.0,20.4,30.12,South,183,3.1,9.6,57,0.00,,---,0.00,VWS V14.01,2013-01-06 23:40:00,
2013-01-06 16:00:00,34.0,19.5,30.12,SSW,196,5.8,6.3,55,0.00,,---,0.00,VWS V14.01,2013-01-07 00:00:00,
2013-01-06 16:20:00,34.2,20.1,30.12,South,182,2.7,10.1,56,0.00,,---,0.00,VWS V14.01,2013-01-07 00:20:00,
2013-01-06 16:40:00,33.6,21.2,30.12,ENE,78,2.7,8.1,60,0.00,,---,0.00,VWS V14.01,2013-01-07 00:40:00,
2013-01-06 17:00:00,33.3,20.5,30.12,ESE,116,0.0,5.4,59,0.00,,---,0.00,VWS V14.01,2013-01-07 01:00:00,
2013-01-06 17:20:00,33.1,20.7,30.12,SSW,208,3.6,6.3,60,0.00,,---,0.00,VWS V14.01,2013-01-07 01:20:00,
2013-01-06 17:40:00,32.9,19.8,30.12,SSW,194,2.2,7.6,58,0.00,,---,0.00,VWS V14.01,2013-01-07 01:40:00,
2013-01-06 18:00:00,32.9,22.1,30.12,WSW,252,2.2,6.3,64,0.00,,---,0.00,VWS V14.01,2013-01-07 02:00:00,
2013-01-06 18:20:00,32.9,23.2,30.12,SSW,198,3.1,10.1,67,0.00,,---,0.00,VWS V14.01,2013-01-07 02:20:00,
2013-01-06 18:40:00,32.7,24.0,30.12,SSW,205,4.0,8.7,70,0.00,,---,0.00,VWS V14.01,2013-01-07 02:40:00,
2013-01-06 19:00:00,32.5,24.2,30.12,WSW,251,2.2,11.0,71,0.00,,---,0.00,VWS V14.01,2013-01-07 03:00:00,
2013-01-06 19:20:00,32.5,24.5,30.12,SW,225,5.4,8.1,72,0.00,,---,0.00,VWS V14.01,2013-01-07 03:20:00,
2013-01-06 19:40:00,32.2,24.2,30.12,SSE,152,2.7,7.6,72,0.00,,---,0.00,VWS V14.01,2013-01-07 03:40:00,
2013-01-06 20:00:00,32.2,24.2,30.12,SSW,202,2.7,8.1,72,0.00,,---,0.00,VWS V14.01,2013-01-07 04:00:00,
2013-01-06 20:20:00,32.2,24.2,30.12,West,270,3.1,5.4,72,0.00,,---,0.00,VWS V14.01,2013-01-07 04:20:00,
2013-01-06 20:40:00,31.6,23.7,30.09,WSW,247,0.0,4.0,72,0.00,,---,0.00,VWS V14.01,2013-01-07 04:40:00,
2013-01-06 21:00:00,31.1,23.1,30.09,SW,225,0.0,2.7,72,0.00,,---,0.00,VWS V14.01,2013-01-07 05:00:00,
2013-01-06 21:20:00,31.1,23.5,30.09,NW,320,0.0,4.0,73,0.00,,---,0.00,VWS V14.01,2013-01-07 05:20:00,
2013-01-06 21:40:00,31.1,23.5,30.09,NW,321,0.0,4.0,73,0.00,,---,0.00,VWS V14.01,2013-01-07 05:40:00,
2013-01-06 22:00:00,30.6,23.0,30.09,NNW,341,0.0,3.1,73,0.00,,---,0.00,VWS V14.01,2013-01-07 06:00:00,
2013-01-06 22:20:00,31.1,23.5,30.09,NNW,330,0.0,2.2,73,0.00,,---,0.00,VWS V14.01,2013-01-07 06:20:00,
2013-01-06 22:40:00,30.7,23.1,30.09,NNW,330,0.0,0.0,73,0.00,,---,0.00,VWS V14.01,2013-01-07 06:40:00,
2013-01-06 23:00:00,30.7,23.1,30.09,NNW,330,0.0,0.0,73,0.00,,---,0.00,VWS V14.01,2013-01-07 07:00:00,
2013-01-06 23:20:00,30.9,23.3,30.09,NNW,330,0.0,0.0,73,0.00,,---,0.00,VWS V14.01,2013-01-07 07:20:00,
2013-01-06 23:40:00,30.2,22.6,30.09,NNW,330,0.0,0.0,73,0.00,,---,0.00,VWS V14.01,2013-01-07 07:40:00,